createdAt,value
2022-11-23T00:02:20.660Z,97724.41
2022-11-23T00:05:11.359Z,97756.00
2022-11-23T00:07:57.934Z,97750.91
2022-11-23T00:10:44.674Z,97744.88
2022-11-23T00:13:31.024Z,97750.81
2022-11-23T00:16:22.893Z,97749.13
2022-11-23T00:19:09.726Z,97749.97
2022-11-23T00:21:56.024Z,97746.56
2022-11-23T00:24:42.354Z,97746.53
2022-11-23T00:27:29.020Z,97746.59
2022-11-23T00:30:15.542Z,97727.88
2022-11-23T00:33:02.529Z,97745.13
2022-11-23T02:47:05.562Z,97780.69
2022-11-23T02:49:52.349Z,97739.50
2022-11-23T02:52:38.878Z,97770.22
2022-11-23T02:55:25.441Z,97759.09
2022-11-23T02:58:12.339Z,97765.03
2022-11-23T03:00:58.959Z,97754.78
2022-11-23T03:03:45.566Z,97767.63
2022-11-23T03:06:32.018Z,97773.63
2022-11-23T03:09:18.813Z,97761.81
2022-11-23T03:12:06.133Z,97748.16
2022-11-23T03:14:52.717Z,97743.75
2022-11-23T03:17:40.200Z,97775.56
2022-11-23T03:20:29.496Z,97774.69
2022-11-23T03:23:16.181Z,97783.19
2022-11-23T03:26:08.540Z,97754.16
2022-11-23T03:29:05.408Z,97772.91
2022-11-23T03:31:55.233Z,97757.38
2022-11-23T03:34:42.047Z,97770.22
2022-11-23T03:37:28.650Z,97757.38
2022-11-23T03:40:15.444Z,97761.78
2022-11-23T03:43:27.937Z,97772.91
2022-11-23T03:46:14.117Z,97756.78
2022-11-23T03:49:00.445Z,97762.75
2022-11-23T03:51:48.064Z,97778.34
2022-11-23T03:54:34.722Z,97752.75
2022-11-23T03:57:21.137Z,97752.16
2022-11-23T04:00:09.053Z,97733.44
2022-11-23T04:02:59.408Z,97756.50
2022-11-23T04:06:06.128Z,97762.56
2022-11-23T04:09:13.256Z,97729.09
2022-11-23T04:12:21.056Z,97746.94
2022-11-23T04:15:07.793Z,97769.03
2022-11-23T04:17:55.251Z,97767.28
2022-11-23T04:20:41.578Z,97762.03
2022-11-23T04:23:27.840Z,97749.94
2022-11-23T04:26:14.229Z,97699.38
2022-11-23T04:29:03.619Z,97730.50
2022-11-23T04:31:52.693Z,97736.47
2022-11-23T04:34:39.683Z,97735.66
2022-11-23T04:37:27.512Z,97751.19
2022-11-23T04:40:14.422Z,97740.09
2022-11-23T04:43:13.741Z,97753.06
2022-11-23T04:46:00.192Z,97758.25
2022-11-23T04:48:49.793Z,97698.44
2022-11-23T04:51:37.525Z,97735.50
2022-11-23T04:54:24.178Z,97755.34
2022-11-23T04:57:15.890Z,97763.00
2022-11-23T05:00:05.090Z,97764.75
2022-11-23T05:02:54.586Z,97764.03
2022-11-23T05:05:45.203Z,97734.91
2022-11-23T05:08:32.154Z,97768.31
2022-11-23T05:11:39.996Z,97745.16
2022-11-23T05:14:28.323Z,97734.13
2022-11-23T05:17:14.860Z,97732.53
2022-11-23T05:20:02.132Z,97735.94
2022-11-23T05:22:51.801Z,97706.09
2022-11-23T05:25:41.613Z,97754.00
2022-11-23T05:28:40.170Z,97738.69
2022-11-23T05:31:29.069Z,97758.44
2022-11-23T05:34:16.384Z,97730.34
2022-11-23T05:37:06.187Z,97751.75
2022-11-23T05:39:52.735Z,97728.66
2022-11-23T05:42:40.369Z,97737.22
2022-11-23T05:45:35.228Z,97753.47
2022-11-23T05:48:22.709Z,97740.66
2022-11-23T05:51:17.207Z,97738.97
2022-11-23T05:54:05.204Z,97756.09
2022-11-23T05:57:01.889Z,97753.47
2022-11-23T05:59:56.081Z,97750.16
2022-11-23T06:02:48.018Z,97739.91
2022-11-23T06:05:34.395Z,97727.06
2022-11-23T06:08:20.990Z,97746.81
2022-11-23T06:11:08.160Z,97747.63
2022-11-23T06:13:54.824Z,97738.31
2022-11-23T06:16:41.546Z,97736.53
2022-11-23T06:19:53.969Z,97755.34
2022-11-23T06:22:40.572Z,97734.91
2022-11-23T06:25:28.067Z,97757.91
2022-11-23T06:28:19.267Z,97762.31
2022-11-23T06:31:07.869Z,97741.75
2022-11-23T06:33:54.619Z,97759.66
2022-11-23T06:36:43.124Z,97736.63
2022-11-23T06:39:30.119Z,97737.50
2022-11-23T06:45:28.438Z,97740.03
2022-11-23T06:48:18.681Z,97739.22
2022-11-23T06:51:07.568Z,97773.47
2022-11-23T06:53:56.890Z,97748.72
2022-11-23T06:56:44.005Z,97734.22
2022-11-23T06:59:31.150Z,97770.16
2022-11-23T07:02:18.033Z,97751.34
2022-11-23T07:05:05.136Z,97764.97
2022-11-23T07:07:51.482Z,97774.41
2022-11-23T07:10:44.520Z,97778.69
2022-11-23T07:13:35.435Z,97777.88
2022-11-23T07:16:22.408Z,97757.38
2022-11-23T07:19:10.921Z,97774.47
2022-11-23T07:21:57.252Z,97780.47
2022-11-23T07:24:46.721Z,97742.91
2022-11-23T07:27:33.228Z,97772.84
2022-11-23T07:30:25.203Z,97776.28
2022-11-23T07:33:14.601Z,97777.13
2022-11-23T07:36:02.787Z,97757.47
2022-11-23T07:38:50.734Z,97775.44
2022-11-23T07:41:39.848Z,97747.22
2022-11-23T07:44:36.941Z,97760.91
2022-11-23T07:47:25.049Z,97767.75
2022-11-23T07:50:13.137Z,97770.31
2022-11-23T07:53:02.095Z,97770.31
2022-11-23T07:55:48.585Z,97778.84
2022-11-23T07:58:34.940Z,97780.59
2022-11-23T08:01:21.408Z,97785.69
2022-11-23T08:04:07.621Z,97776.31
2022-11-23T11:16:59.548Z,97739.03
2022-11-23T11:19:45.952Z,97734.53
2022-11-23T11:22:34.979Z,97719.84
2022-11-23T11:25:30.607Z,97700.34
2022-11-23T11:28:42.448Z,97727.50
2022-11-23T11:31:57.765Z,97736.09
2022-11-23T11:34:55.681Z,97722.94
2022-11-23T11:37:44.753Z,97715.06
2022-11-23T11:40:45.183Z,97718.44
2022-11-23T11:43:43.809Z,97710.69
2022-11-23T11:46:37.914Z,97711.66
2022-11-23T11:49:31.032Z,97690.19
2022-11-23T11:52:23.565Z,97687.59
2022-11-23T11:55:24.901Z,97702.06
2022-11-23T11:58:15.831Z,97698.53
2022-11-23T12:01:32.632Z,97693.28
2022-11-23T12:04:39.712Z,97654.00
2022-11-23T12:07:30.411Z,97690.50
2022-11-23T12:10:27.933Z,97669.94
2022-11-23T12:13:21.400Z,97680.13
2022-11-23T12:16:20.194Z,97674.84
2022-11-23T12:19:14.143Z,97656.06
2022-11-23T12:22:26.557Z,97672.72
2022-11-23T12:25:24.983Z,97676.00
2022-11-23T12:28:43.282Z,97666.38
2022-11-23T12:31:49.030Z,97676.38
2022-11-23T12:35:17.220Z,97660.50
2022-11-23T12:38:16.721Z,97659.41
2022-11-23T12:41:29.324Z,97643.22
2022-11-23T12:44:49.846Z,97667.88
2022-11-23T12:47:52.570Z,97672.81
2022-11-23T12:51:29.558Z,97671.00
2022-11-23T12:54:25.653Z,97665.00
2022-11-23T12:57:35.171Z,97661.66
2022-11-23T13:00:23.191Z,97656.66
2022-11-23T13:03:34.508Z,97638.97
2022-11-23T13:07:20.716Z,97652.75
2022-11-23T13:10:33.123Z,97646.63
2022-11-23T13:13:38.160Z,97647.53
2022-11-23T13:16:39.917Z,97647.72
2022-11-23T13:19:44.980Z,97641.75
2022-11-23T13:22:32.877Z,97625.59
2022-11-23T13:25:27.625Z,97633.16
2022-11-23T13:28:29.206Z,97615.13
2022-11-23T13:31:16.133Z,97633.88
2022-11-23T13:34:23.900Z,97630.56
2022-11-23T13:37:12.672Z,97618.59
2022-11-23T13:40:03.828Z,97611.94
2022-11-23T13:42:52.235Z,97591.78
2022-11-23T13:45:39.031Z,97613.31
2022-11-23T13:48:55.561Z,97600.44
2022-11-23T13:51:35.464Z,97596.50
2022-11-23T13:54:24.800Z,97592.41
2022-11-23T13:57:13.282Z,97577.53
2022-11-23T14:00:37.471Z,97593.03
2022-11-23T14:03:42.831Z,97594.34
2022-11-23T14:06:54.396Z,97541.84
2022-11-23T14:10:00.085Z,97592.22
2022-11-23T14:13:05.628Z,97568.31
2022-11-23T14:16:00.278Z,97571.00
2022-11-23T14:18:54.091Z,97587.03
2022-11-23T14:22:07.805Z,97593.97
2022-11-23T14:25:03.427Z,97580.38
2022-11-23T14:28:38.425Z,97579.53
2022-11-23T14:31:46.181Z,97566.09
2022-11-23T14:34:54.509Z,97561.06
2022-11-23T14:37:59.154Z,97564.72
2022-11-23T14:41:01.898Z,97546.69
2022-11-23T14:43:49.731Z,97543.25
2022-11-23T14:46:36.512Z,97545.16
2022-11-23T14:49:23.092Z,97542.16
2022-11-23T14:52:19.344Z,97532.97
2022-11-23T14:55:06.422Z,97505.84
2022-11-23T14:57:58.947Z,97544.44
2022-11-23T15:00:45.747Z,97541.19
2022-11-23T15:03:50.077Z,97537.81
2022-11-23T15:06:45.709Z,97521.09
2022-11-23T15:10:00.723Z,97519.59
2022-11-23T15:12:49.321Z,97519.66
2022-11-23T15:15:38.033Z,97544.53
2022-11-23T15:18:38.661Z,97547.19
2022-11-23T15:21:28.168Z,97552.41
2022-11-23T15:24:23.323Z,97527.72
2022-11-23T15:27:22.832Z,97536.31
2022-11-23T15:30:16.333Z,97554.28
2022-11-23T15:33:08.906Z,97558.66
2022-11-23T15:35:55.668Z,97519.47
2022-11-23T15:38:42.090Z,97551.94
2022-11-23T15:41:30.183Z,97537.50
2022-11-23T15:44:24.785Z,97557.94
2022-11-23T15:47:18.117Z,97528.97
2022-11-23T15:50:09.509Z,97561.34
2022-11-23T15:52:58.544Z,97561.31
2022-11-23T15:55:45.479Z,97571.53
2022-11-23T15:58:33.824Z,97570.72
2022-11-23T16:01:21.985Z,97542.63
2022-11-23T16:04:50.411Z,97584.44
2022-11-23T16:07:51.020Z,97580.13
2022-11-23T16:10:54.072Z,97579.31
2022-11-23T16:13:40.211Z,97585.22
2022-11-23T16:16:27.210Z,97581.81
2022-11-23T16:19:31.813Z,97593.72
2022-11-23T16:22:24.152Z,97581.81
2022-11-23T16:25:24.753Z,97603.13
2022-11-23T16:28:25.636Z,97556.22
2022-11-23T16:31:51.525Z,97619.28
2022-11-23T16:34:38.043Z,97632.16
2022-11-23T16:37:26.280Z,97629.59
2022-11-23T16:40:13.936Z,97644.09
2022-11-23T16:43:00.577Z,97640.72
2022-11-23T16:45:51.128Z,97643.31
2022-11-23T16:48:42.280Z,97666.31
2022-11-23T16:51:28.801Z,97670.66
2022-11-23T16:54:18.049Z,97671.47
2022-11-23T16:57:07.308Z,97653.59
2022-11-23T16:59:54.019Z,97692.88
2022-11-23T17:02:40.659Z,97696.25
2022-11-23T17:05:27.216Z,97691.13
2022-11-23T17:08:19.782Z,97703.09
2022-11-23T17:11:16.877Z,97670.69
2022-11-23T17:14:04.362Z,97694.66
2022-11-23T17:16:50.954Z,97715.19
2022-11-23T17:19:37.625Z,97713.47
2022-11-23T17:22:23.889Z,97687.84
2022-11-23T17:25:14.922Z,97719.53
2022-11-23T17:28:03.191Z,97711.84
2022-11-23T17:30:50.130Z,97729.78
2022-11-23T17:33:36.281Z,97716.06
2022-11-23T17:36:23.348Z,97709.34
2022-11-23T17:39:19.144Z,97729.84
2022-11-23T17:42:05.498Z,97749.50
2022-11-23T17:44:51.721Z,97716.16
2022-11-23T17:47:38.534Z,97740.88
2022-11-23T17:50:28.612Z,97739.13
2022-11-23T17:53:14.970Z,97746.06
2022-11-23T17:56:01.246Z,97733.25
2022-11-23T17:58:48.065Z,97764.91
2022-11-23T18:01:34.768Z,97747.00
2022-11-23T18:04:21.284Z,97738.41
2022-11-23T18:07:10.345Z,97776.09
2022-11-23T18:09:56.798Z,97750.44
2022-11-23T18:12:44.566Z,97772.69
2022-11-23T18:15:31.002Z,97766.69
2022-11-23T18:18:18.033Z,97753.84
2022-11-23T18:21:07.117Z,97767.59
2022-11-23T18:23:53.305Z,97786.38
2022-11-23T18:26:39.643Z,97784.56
2022-11-23T18:29:26.098Z,97792.22
2022-11-23T18:32:12.379Z,97793.16
2022-11-23T18:34:58.642Z,97771.75
2022-11-23T18:37:45.078Z,97778.66
2022-11-23T18:40:31.340Z,97815.44
2022-11-23T18:43:17.533Z,97792.38
2022-11-23T18:46:05.879Z,97782.97
2022-11-23T18:48:53.437Z,97810.34
2022-11-23T18:51:39.683Z,97825.75
2022-11-23T18:54:25.938Z,97795.00
2022-11-23T18:57:16.378Z,97828.31
2022-11-23T19:00:05.880Z,97810.34
2022-11-23T19:02:56.003Z,97835.97
2022-11-23T19:05:42.396Z,97811.22
2022-11-23T20:55:39.053Z,98079.38
2022-11-23T20:58:25.640Z,98082.03
2022-11-23T21:01:14.474Z,98088.91
2022-11-23T21:04:00.836Z,98116.34
2022-11-23T21:06:47.037Z,98131.00
2022-11-23T21:09:33.769Z,98127.59
2022-11-23T21:12:39.106Z,98147.31
2022-11-23T21:15:25.469Z,98129.34
2022-11-23T21:18:12.295Z,98151.53
2022-11-23T21:20:58.878Z,98147.22
2022-11-23T21:23:48.199Z,98133.56
2022-11-23T21:26:37.464Z,98129.22
2022-11-23T21:29:23.990Z,98165.13
2022-11-23T21:32:11.483Z,98168.59
2022-11-23T21:34:57.591Z,98173.69
2022-11-23T21:37:44.199Z,98183.13
2022-11-23T21:40:30.717Z,98178.91
2022-11-23T21:43:16.949Z,98192.66
2022-11-23T21:46:05.801Z,98173.88
2022-11-23T21:48:57.758Z,98203.00
2022-11-23T21:51:45.527Z,98201.31
2022-11-23T21:54:32.260Z,98181.63
2022-11-23T21:57:18.726Z,98201.38
2022-11-23T22:00:05.480Z,98209.94
2022-11-23T22:02:58.448Z,98210.81
2022-11-23T22:05:55.878Z,98180.00
2022-11-23T22:08:47.148Z,98190.25
2022-11-23T22:11:35.681Z,98215.06
2022-11-23T22:14:22.527Z,98193.63
2022-11-23T22:17:08.980Z,98197.97
2022-11-23T22:19:55.243Z,98198.91
2022-11-23T22:22:41.516Z,98216.88
2022-11-23T22:25:27.892Z,98226.31
2022-11-23T22:28:14.197Z,98208.34
2022-11-23T22:31:00.373Z,98235.81
2022-11-23T22:33:46.887Z,98211.84
2022-11-23T22:36:33.663Z,98230.72
2022-11-23T22:39:19.948Z,98236.75
2022-11-23T22:42:06.289Z,98217.94
2022-11-23T22:44:52.599Z,98247.91
2022-11-23T22:47:38.946Z,98229.94
2022-11-23T22:50:25.225Z,98254.81
2022-11-23T22:53:11.634Z,98264.25
2022-11-23T22:56:03.092Z,98265.09
2022-11-23T22:58:49.448Z,98265.97
2022-11-23T23:01:35.909Z,98280.59
2022-11-23T23:04:22.180Z,98260.00
2022-11-23T23:07:08.517Z,98266.00
2022-11-23T23:09:55.186Z,98276.31
2022-11-23T23:12:41.432Z,98275.44
2022-11-23T23:15:27.984Z,98280.56
2022-11-23T23:18:16.166Z,98301.16
2022-11-23T23:21:02.604Z,98303.72
2022-11-23T23:23:50.783Z,98292.56
2022-11-23T23:26:37.292Z,98291.72
2022-11-23T23:29:23.580Z,98302.84
2022-11-23T23:32:09.971Z,98269.41
2022-11-23T23:34:56.645Z,98298.56
2022-11-23T23:37:42.848Z,98293.38
2022-11-23T23:40:29.292Z,98296.84
2022-11-23T23:43:15.672Z,98300.31
2022-11-23T23:46:04.661Z,98326.91
2022-11-23T23:48:51.464Z,98326.06
2022-11-23T23:51:37.960Z,98331.19
2022-11-23T23:54:25.081Z,98330.34
2022-11-23T23:57:11.319Z,98311.47
2022-11-23T23:59:57.651Z,98314.00
